sensor_id;sensor_type;location;lat;lon;timestamp;temperature;humidity
22544;DHT22;11438;52.044;8.716;2022-10-28T00:01:09;19.10;97.20
22544;DHT22;11438;52.044;8.716;2022-10-28T00:03:43;19.20;97.20
22544;DHT22;11438;52.044;8.716;2022-10-28T00:06:11;19.10;97.10
22544;DHT22;11438;52.044;8.716;2022-10-28T00:08:38;19.10;97.10
22544;DHT22;11438;52.044;8.716;2022-10-28T00:11:09;19.10;97.10
22544;DHT22;11438;52.044;8.716;2022-10-28T00:13:35;19.10;97.10
22544;DHT22;11438;52.044;8.716;2022-10-28T00:16:06;19.10;97.20
22544;DHT22;11438;52.044;8.716;2022-10-28T00:18:31;19.10;97.30
22544;DHT22;11438;52.044;8.716;2022-10-28T00:21:05;19.00;97.30
22544;DHT22;11438;52.044;8.716;2022-10-28T00:23:31;19.00;97.40
22544;DHT22;11438;52.044;8.716;2022-10-28T00:26:04;19.00;97.40
22544;DHT22;11438;52.044;8.716;2022-10-28T00:28:29;19.00;97.50
22544;DHT22;11438;52.044;8.716;2022-10-28T00:30:55;19.00;97.50
22544;DHT22;11438;52.044;8.716;2022-10-28T00:33:20;19.00;97.50
22544;DHT22;11438;52.044;8.716;2022-10-28T00:35:46;19.00;97.60
22544;DHT22;11438;52.044;8.716;2022-10-28T00:38:11;19.00;97.70
22544;DHT22;11438;52.044;8.716;2022-10-28T00:40:37;19.00;97.70
22544;DHT22;11438;52.044;8.716;2022-10-28T00:43:02;19.00;97.80
22544;DHT22;11438;52.044;8.716;2022-10-28T00:45:28;19.00;97.80
22544;DHT22;11438;52.044;8.716;2022-10-28T00:48:00;19.00;97.90
22544;DHT22;11438;52.044;8.716;2022-10-28T00:50:30;19.00;97.90
22544;DHT22;11438;52.044;8.716;2022-10-28T00:53:19;19.00;97.90
22544;DHT22;11438;52.044;8.716;2022-10-28T00:55:46;19.00;98.00
22544;DHT22;11438;52.044;8.716;2022-10-28T00:58:13;19.00;97.90
22544;DHT22;11438;52.044;8.716;2022-10-28T01:00:40;19.00;98.00
22544;DHT22;11438;52.044;8.716;2022-10-28T01:03:05;19.00;98.00
22544;DHT22;11438;52.044;8.716;2022-10-28T01:05:35;19.00;98.00
22544;DHT22;11438;52.044;8.716;2022-10-28T01:08:02;19.00;98.00
22544;DHT22;11438;52.044;8.716;2022-10-28T01:10:50;19.00;97.90
22544;DHT22;11438;52.044;8.716;2022-10-28T01:16:42;19.00;97.90
22544;DHT22;11438;52.044;8.716;2022-10-28T01:19:17;19.00;97.90
22544;DHT22;11438;52.044;8.716;2022-10-28T01:22:26;19.00;97.90
22544;DHT22;11438;52.044;8.716;2022-10-28T01:28:08;19.00;98.00
22544;DHT22;11438;52.044;8.716;2022-10-28T01:33:34;18.90;98.10
22544;DHT22;11438;52.044;8.716;2022-10-28T01:36:11;19.00;98.10
22544;DHT22;11438;52.044;8.716;2022-10-28T01:38:55;19.00;98.20
22544;DHT22;11438;52.044;8.716;2022-10-28T01:41:30;19.00;98.60
22544;DHT22;11438;52.044;8.716;2022-10-28T01:44:00;19.00;98.30
22544;DHT22;11438;52.044;8.716;2022-10-28T01:46:36;18.90;98.20
22544;DHT22;11438;52.044;8.716;2022-10-28T01:49:20;18.90;98.20
22544;DHT22;11438;52.044;8.716;2022-10-28T01:51:51;19.00;98.30
22544;DHT22;11438;52.044;8.716;2022-10-28T01:54:21;19.00;98.20
22544;DHT22;11438;52.044;8.716;2022-10-28T01:56:47;18.90;98.20
22544;DHT22;11438;52.044;8.716;2022-10-28T01:59:19;18.90;98.20
22544;DHT22;11438;52.044;8.716;2022-10-28T02:01:45;18.90;98.20
22544;DHT22;11438;52.044;8.716;2022-10-28T02:04:11;18.90;98.30
22544;DHT22;11438;52.044;8.716;2022-10-28T02:06:38;18.90;98.30
22544;DHT22;11438;52.044;8.716;2022-10-28T02:09:42;18.90;98.30
22544;DHT22;11438;52.044;8.716;2022-10-28T02:15:25;18.90;98.30
22544;DHT22;11438;52.044;8.716;2022-10-28T02:21:01;19.00;98.30
22544;DHT22;11438;52.044;8.716;2022-10-28T02:26:37;18.90;98.30
22544;DHT22;11438;52.044;8.716;2022-10-28T02:29:35;18.90;98.30
22544;DHT22;11438;52.044;8.716;2022-10-28T02:32:07;18.90;98.30
22544;DHT22;11438;52.044;8.716;2022-10-28T02:34:38;18.90;98.30
22544;DHT22;11438;52.044;8.716;2022-10-28T02:37:10;18.90;98.30
22544;DHT22;11438;52.044;8.716;2022-10-28T02:39:40;18.90;98.40
22544;DHT22;11438;52.044;8.716;2022-10-28T02:44:42;18.90;98.40
22544;DHT22;11438;52.044;8.716;2022-10-28T02:47:13;18.90;98.40
22544;DHT22;11438;52.044;8.716;2022-10-28T02:49:42;18.90;98.40
22544;DHT22;11438;52.044;8.716;2022-10-28T02:52:10;18.90;98.40
22544;DHT22;11438;52.044;8.716;2022-10-28T02:54:39;18.90;98.40
22544;DHT22;11438;52.044;8.716;2022-10-28T02:57:11;18.90;98.40
22544;DHT22;11438;52.044;8.716;2022-10-28T02:59:39;18.90;98.40
22544;DHT22;11438;52.044;8.716;2022-10-28T03:02:05;18.90;98.40
22544;DHT22;11438;52.044;8.716;2022-10-28T03:04:30;18.90;98.40
22544;DHT22;11438;52.044;8.716;2022-10-28T03:06:56;18.90;98.40
22544;DHT22;11438;52.044;8.716;2022-10-28T03:09:21;18.90;98.40
22544;DHT22;11438;52.044;8.716;2022-10-28T03:11:47;18.90;98.40
22544;DHT22;11438;52.044;8.716;2022-10-28T03:14:12;18.90;98.40
22544;DHT22;11438;52.044;8.716;2022-10-28T03:16:38;18.90;98.40
22544;DHT22;11438;52.044;8.716;2022-10-28T03:19:03;18.90;98.40
22544;DHT22;11438;52.044;8.716;2022-10-28T03:21:29;18.80;98.40
22544;DHT22;11438;52.044;8.716;2022-10-28T03:23:55;18.80;98.70
22544;DHT22;11438;52.044;8.716;2022-10-28T03:26:20;18.80;98.40
22544;DHT22;11438;52.044;8.716;2022-10-28T03:28:46;18.80;98.40
22544;DHT22;11438;52.044;8.716;2022-10-28T03:31:11;18.80;98.40
22544;DHT22;11438;52.044;8.716;2022-10-28T03:33:37;18.80;98.40
22544;DHT22;11438;52.044;8.716;2022-10-28T03:36:02;18.80;98.50
22544;DHT22;11438;52.044;8.716;2022-10-28T03:38:29;18.80;98.50
22544;DHT22;11438;52.044;8.716;2022-10-28T03:40:55;18.80;98.50
22544;DHT22;11438;52.044;8.716;2022-10-28T03:43:20;18.80;98.40
22544;DHT22;11438;52.044;8.716;2022-10-28T03:45:46;18.80;98.40
22544;DHT22;11438;52.044;8.716;2022-10-28T03:48:12;18.80;98.50
22544;DHT22;11438;52.044;8.716;2022-10-28T03:50:38;18.80;98.50
22544;DHT22;11438;52.044;8.716;2022-10-28T03:53:03;18.70;98.50
22544;DHT22;11438;52.044;8.716;2022-10-28T03:55:29;18.80;98.50
22544;DHT22;11438;52.044;8.716;2022-10-28T03:57:54;18.70;98.50
22544;DHT22;11438;52.044;8.716;2022-10-28T04:00:20;18.70;98.50
22544;DHT22;11438;52.044;8.716;2022-10-28T04:02:52;18.80;98.60
22544;DHT22;11438;52.044;8.716;2022-10-28T04:05:19;18.80;98.70
22544;DHT22;11438;52.044;8.716;2022-10-28T04:07:44;18.80;98.70
22544;DHT22;11438;52.044;8.716;2022-10-28T04:10:10;18.80;99.00
22544;DHT22;11438;52.044;8.716;2022-10-28T04:12:36;18.80;98.70
22544;DHT22;11438;52.044;8.716;2022-10-28T04:15:01;18.80;98.60
22544;DHT22;11438;52.044;8.716;2022-10-28T04:17:27;18.80;98.60
22544;DHT22;11438;52.044;8.716;2022-10-28T04:19:52;18.70;98.60
22544;DHT22;11438;52.044;8.716;2022-10-28T04:22:18;18.80;98.60
22544;DHT22;11438;52.044;8.716;2022-10-28T04:24:44;18.70;98.60
22544;DHT22;11438;52.044;8.716;2022-10-28T04:27:09;18.70;98.60
22544;DHT22;11438;52.044;8.716;2022-10-28T04:29:35;18.70;98.70
22544;DHT22;11438;52.044;8.716;2022-10-28T04:32:01;18.70;98.70
22544;DHT22;11438;52.044;8.716;2022-10-28T04:34:26;18.70;98.70
22544;DHT22;11438;52.044;8.716;2022-10-28T04:36:52;18.60;99.10
22544;DHT22;11438;52.044;8.716;2022-10-28T04:39:18;18.70;98.80
22544;DHT22;11438;52.044;8.716;2022-10-28T04:41:43;18.70;98.80
22544;DHT22;11438;52.044;8.716;2022-10-28T04:44:09;18.70;98.90
22544;DHT22;11438;52.044;8.716;2022-10-28T04:46:34;18.70;98.90
22544;DHT22;11438;52.044;8.716;2022-10-28T04:49:00;18.70;99.00
22544;DHT22;11438;52.044;8.716;2022-10-28T04:51:25;18.60;99.00
22544;DHT22;11438;52.044;8.716;2022-10-28T04:53:51;18.60;98.90
22544;DHT22;11438;52.044;8.716;2022-10-28T04:56:16;18.60;98.90
22544;DHT22;11438;52.044;8.716;2022-10-28T04:58:42;18.60;98.90
22544;DHT22;11438;52.044;8.716;2022-10-28T05:01:08;18.70;98.90
22544;DHT22;11438;52.044;8.716;2022-10-28T05:03:34;18.70;98.90
22544;DHT22;11438;52.044;8.716;2022-10-28T05:06:01;18.70;98.90
22544;DHT22;11438;52.044;8.716;2022-10-28T05:08:26;18.70;99.00
22544;DHT22;11438;52.044;8.716;2022-10-28T05:10:52;18.70;99.00
22544;DHT22;11438;52.044;8.716;2022-10-28T05:13:18;18.70;99.00
22544;DHT22;11438;52.044;8.716;2022-10-28T05:15:44;18.70;99.00
22544;DHT22;11438;52.044;8.716;2022-10-28T05:18:09;18.70;98.90
22544;DHT22;11438;52.044;8.716;2022-10-28T05:20:35;18.80;98.90
22544;DHT22;11438;52.044;8.716;2022-10-28T05:23:00;18.70;98.80
22544;DHT22;11438;52.044;8.716;2022-10-28T05:25:26;18.70;98.70
22544;DHT22;11438;52.044;8.716;2022-10-28T05:27:52;18.70;98.70
22544;DHT22;11438;52.044;8.716;2022-10-28T05:30:18;18.70;98.60
22544;DHT22;11438;52.044;8.716;2022-10-28T05:32:44;18.70;98.60
22544;DHT22;11438;52.044;8.716;2022-10-28T05:35:10;18.70;98.60
22544;DHT22;11438;52.044;8.716;2022-10-28T05:37:36;18.70;98.60
22544;DHT22;11438;52.044;8.716;2022-10-28T05:40:02;18.60;98.60
22544;DHT22;11438;52.044;8.716;2022-10-28T05:42:28;18.60;98.60
22544;DHT22;11438;52.044;8.716;2022-10-28T05:44:54;18.60;98.60
22544;DHT22;11438;52.044;8.716;2022-10-28T05:47:19;18.60;98.60
22544;DHT22;11438;52.044;8.716;2022-10-28T05:49:45;18.60;98.70
22544;DHT22;11438;52.044;8.716;2022-10-28T05:52:10;18.60;98.60
22544;DHT22;11438;52.044;8.716;2022-10-28T05:54:36;18.60;98.70
22544;DHT22;11438;52.044;8.716;2022-10-28T05:57:01;18.50;98.60
22544;DHT22;11438;52.044;8.716;2022-10-28T05:59:27;18.50;98.60
22544;DHT22;11438;52.044;8.716;2022-10-28T06:01:52;18.50;98.60
22544;DHT22;11438;52.044;8.716;2022-10-28T06:04:18;18.50;98.70
22544;DHT22;11438;52.044;8.716;2022-10-28T06:06:44;18.50;98.60
22544;DHT22;11438;52.044;8.716;2022-10-28T06:09:09;18.50;98.60
22544;DHT22;11438;52.044;8.716;2022-10-28T06:11:35;18.50;98.60
22544;DHT22;11438;52.044;8.716;2022-10-28T06:14:01;18.40;98.50
22544;DHT22;11438;52.044;8.716;2022-10-28T06:16:26;18.40;98.40
22544;DHT22;11438;52.044;8.716;2022-10-28T06:18:52;18.40;98.40
22544;DHT22;11438;52.044;8.716;2022-10-28T06:21:17;18.40;98.40
22544;DHT22;11438;52.044;8.716;2022-10-28T06:23:43;18.30;98.40
22544;DHT22;11438;52.044;8.716;2022-10-28T06:26:09;18.30;98.40
22544;DHT22;11438;52.044;8.716;2022-10-28T06:28:34;18.30;98.40
22544;DHT22;11438;52.044;8.716;2022-10-28T06:31:01;18.30;98.40
22544;DHT22;11438;52.044;8.716;2022-10-28T06:33:27;18.30;98.40
22544;DHT22;11438;52.044;8.716;2022-10-28T06:35:56;18.30;98.40
22544;DHT22;11438;52.044;8.716;2022-10-28T06:38:23;18.30;98.50
22544;DHT22;11438;52.044;8.716;2022-10-28T06:40:48;18.30;98.50
22544;DHT22;11438;52.044;8.716;2022-10-28T06:43:14;18.30;98.50
22544;DHT22;11438;52.044;8.716;2022-10-28T06:45:41;18.30;98.50
22544;DHT22;11438;52.044;8.716;2022-10-28T06:48:07;18.30;98.60
22544;DHT22;11438;52.044;8.716;2022-10-28T06:50:34;18.20;98.60
22544;DHT22;11438;52.044;8.716;2022-10-28T06:53:00;18.30;98.70
22544;DHT22;11438;52.044;8.716;2022-10-28T06:55:27;18.30;98.80
22544;DHT22;11438;52.044;8.716;2022-10-28T06:57:53;18.30;98.80
22544;DHT22;11438;52.044;8.716;2022-10-28T07:00:22;18.30;98.80
22544;DHT22;11438;52.044;8.716;2022-10-28T07:02:51;18.30;98.90
22544;DHT22;11438;52.044;8.716;2022-10-28T07:05:17;18.30;99.00
22544;DHT22;11438;52.044;8.716;2022-10-28T07:07:42;18.40;99.00
22544;DHT22;11438;52.044;8.716;2022-10-28T07:10:08;18.40;99.00
22544;DHT22;11438;52.044;8.716;2022-10-28T07:12:34;18.40;99.00
22544;DHT22;11438;52.044;8.716;2022-10-28T07:14:59;18.40;99.00
22544;DHT22;11438;52.044;8.716;2022-10-28T07:17:25;18.50;99.00
22544;DHT22;11438;52.044;8.716;2022-10-28T07:19:51;18.50;99.00
22544;DHT22;11438;52.044;8.716;2022-10-28T07:22:16;18.50;99.00
22544;DHT22;11438;52.044;8.716;2022-10-28T07:24:42;18.60;99.00
22544;DHT22;11438;52.044;8.716;2022-10-28T07:27:08;18.60;99.10
22544;DHT22;11438;52.044;8.716;2022-10-28T07:29:34;18.60;99.00
22544;DHT22;11438;52.044;8.716;2022-10-28T07:31:59;18.70;99.00
22544;DHT22;11438;52.044;8.716;2022-10-28T07:34:25;18.70;99.00
22544;DHT22;11438;52.044;8.716;2022-10-28T07:36:52;18.70;99.00
22544;DHT22;11438;52.044;8.716;2022-10-28T07:39:18;18.80;99.00
22544;DHT22;11438;52.044;8.716;2022-10-28T07:41:44;18.80;99.00
22544;DHT22;11438;52.044;8.716;2022-10-28T07:44:09;18.80;98.90
22544;DHT22;11438;52.044;8.716;2022-10-28T07:46:35;18.80;98.90
22544;DHT22;11438;52.044;8.716;2022-10-28T07:49:00;18.80;98.80
22544;DHT22;11438;52.044;8.716;2022-10-28T07:51:26;18.90;98.90
22544;DHT22;11438;52.044;8.716;2022-10-28T07:53:52;18.90;98.90
22544;DHT22;11438;52.044;8.716;2022-10-28T07:56:18;18.90;98.90
22544;DHT22;11438;52.044;8.716;2022-10-28T07:58:44;18.90;98.90
22544;DHT22;11438;52.044;8.716;2022-10-28T08:01:11;18.90;99.10
22544;DHT22;11438;52.044;8.716;2022-10-28T08:03:37;19.00;99.10
22544;DHT22;11438;52.044;8.716;2022-10-28T08:06:05;19.00;99.20
22544;DHT22;11438;52.044;8.716;2022-10-28T08:08:31;19.00;99.20
22544;DHT22;11438;52.044;8.716;2022-10-28T08:10:57;19.00;99.30
22544;DHT22;11438;52.044;8.716;2022-10-28T08:13:22;19.10;99.30
22544;DHT22;11438;52.044;8.716;2022-10-28T08:15:54;19.10;99.40
22544;DHT22;11438;52.044;8.716;2022-10-28T08:18:20;19.20;99.50
22544;DHT22;11438;52.044;8.716;2022-10-28T08:20:47;19.20;99.40
22544;DHT22;11438;52.044;8.716;2022-10-28T08:23:13;19.30;99.50
22544;DHT22;11438;52.044;8.716;2022-10-28T08:25:46;19.30;99.40
22544;DHT22;11438;52.044;8.716;2022-10-28T08:28:12;19.40;99.50
22544;DHT22;11438;52.044;8.716;2022-10-28T08:30:38;19.40;99.60
22544;DHT22;11438;52.044;8.716;2022-10-28T08:33:03;19.50;99.80
22544;DHT22;11438;52.044;8.716;2022-10-28T08:35:29;19.50;99.80
22544;DHT22;11438;52.044;8.716;2022-10-28T08:37:54;19.60;99.70
22544;DHT22;11438;52.044;8.716;2022-10-28T08:40:28;19.60;99.60
22544;DHT22;11438;52.044;8.716;2022-10-28T08:43:02;19.70;99.70
22544;DHT22;11438;52.044;8.716;2022-10-28T08:50:56;19.90;99.10
22544;DHT22;11438;52.044;8.716;2022-10-28T08:53:27;20.00;98.90
22544;DHT22;11438;52.044;8.716;2022-10-28T08:55:58;20.10;98.80
22544;DHT22;11438;52.044;8.716;2022-10-28T08:58:33;20.20;98.60
22544;DHT22;11438;52.044;8.716;2022-10-28T09:00:58;20.30;98.60
22544;DHT22;11438;52.044;8.716;2022-10-28T09:03:26;20.40;98.30
22544;DHT22;11438;52.044;8.716;2022-10-28T09:05:59;20.40;98.20
22544;DHT22;11438;52.044;8.716;2022-10-28T09:08:27;20.50;98.00
22544;DHT22;11438;52.044;8.716;2022-10-28T09:16:46;20.80;97.60
22544;DHT22;11438;52.044;8.716;2022-10-28T09:22:17;21.00;97.60
22544;DHT22;11438;52.044;8.716;2022-10-28T09:25:04;21.10;97.40
22544;DHT22;11438;52.044;8.716;2022-10-28T09:35:20;21.40;97.00
22544;DHT22;11438;52.044;8.716;2022-10-28T09:38:06;21.50;96.80
22544;DHT22;11438;52.044;8.716;2022-10-28T09:40:36;21.60;96.40
22544;DHT22;11438;52.044;8.716;2022-10-28T09:43:10;21.70;96.40
22544;DHT22;11438;52.044;8.716;2022-10-28T09:45:45;21.70;96.40
22544;DHT22;11438;52.044;8.716;2022-10-28T09:48:24;21.80;96.30
22544;DHT22;11438;52.044;8.716;2022-10-28T09:50:53;21.90;96.20
22544;DHT22;11438;52.044;8.716;2022-10-28T09:53:53;21.90;95.80
22544;DHT22;11438;52.044;8.716;2022-10-28T09:56:20;22.00;95.90
22544;DHT22;11438;52.044;8.716;2022-10-28T09:58:46;22.00;95.70
22544;DHT22;11438;52.044;8.716;2022-10-28T10:01:13;22.10;95.60
22544;DHT22;11438;52.044;8.716;2022-10-28T10:03:40;22.10;95.60
22544;DHT22;11438;52.044;8.716;2022-10-28T10:06:14;22.20;95.60
22544;DHT22;11438;52.044;8.716;2022-10-28T10:08:41;22.20;95.40
22544;DHT22;11438;52.044;8.716;2022-10-28T10:11:19;22.30;95.60
22544;DHT22;11438;52.044;8.716;2022-10-28T10:13:49;22.30;95.30
22544;DHT22;11438;52.044;8.716;2022-10-28T10:16:39;22.40;95.40
22544;DHT22;11438;52.044;8.716;2022-10-28T10:19:07;22.40;95.10
22544;DHT22;11438;52.044;8.716;2022-10-28T10:21:47;22.50;95.10
22544;DHT22;11438;52.044;8.716;2022-10-28T10:24:33;22.50;95.00
22544;DHT22;11438;52.044;8.716;2022-10-28T10:29:34;22.70;94.90
22544;DHT22;11438;52.044;8.716;2022-10-28T10:32:16;22.70;94.80
22544;DHT22;11438;52.044;8.716;2022-10-28T10:35:35;22.80;94.60
22544;DHT22;11438;52.044;8.716;2022-10-28T10:37:42;22.90;94.40
22544;DHT22;11438;52.044;8.716;2022-10-28T10:40:37;22.90;94.60
22544;DHT22;11438;52.044;8.716;2022-10-28T10:43:38;23.00;94.60
22544;DHT22;11438;52.044;8.716;2022-10-28T10:46:05;23.10;94.50
22544;DHT22;11438;52.044;8.716;2022-10-28T10:48:37;23.20;94.50
22544;DHT22;11438;52.044;8.716;2022-10-28T10:51:08;23.20;94.30
22544;DHT22;11438;52.044;8.716;2022-10-28T10:53:37;23.30;94.20
22544;DHT22;11438;52.044;8.716;2022-10-28T10:56:06;23.30;94.30
22544;DHT22;11438;52.044;8.716;2022-10-28T10:58:47;23.40;94.00
22544;DHT22;11438;52.044;8.716;2022-10-28T11:01:18;23.50;93.80
22544;DHT22;11438;52.044;8.716;2022-10-28T11:04:13;23.50;93.30
22544;DHT22;11438;52.044;8.716;2022-10-28T11:06:38;23.60;93.50
22544;DHT22;11438;52.044;8.716;2022-10-28T11:09:16;23.60;93.30
22544;DHT22;11438;52.044;8.716;2022-10-28T11:11:44;23.70;93.60
22544;DHT22;11438;52.044;8.716;2022-10-28T11:16:47;23.80;93.20
22544;DHT22;11438;52.044;8.716;2022-10-28T11:22:33;23.90;92.80
22544;DHT22;11438;52.044;8.716;2022-10-28T11:27:54;24.00;92.80
22544;DHT22;11438;52.044;8.716;2022-10-28T11:30:51;24.10;92.90
22544;DHT22;11438;52.044;8.716;2022-10-28T11:34:08;24.10;92.10
22544;DHT22;11438;52.044;8.716;2022-10-28T11:38:56;24.20;92.70
22544;DHT22;11438;52.044;8.716;2022-10-28T12:06:22;24.70;91.60
22544;DHT22;11438;52.044;8.716;2022-10-28T12:09:20;24.70;91.70
22544;DHT22;11438;52.044;8.716;2022-10-28T12:12:04;24.70;91.50
22544;DHT22;11438;52.044;8.716;2022-10-28T12:15:42;24.80;91.20
22544;DHT22;11438;52.044;8.716;2022-10-28T12:17:42;24.80;91.20
22544;DHT22;11438;52.044;8.716;2022-10-28T12:20:12;24.80;91.30
22544;DHT22;11438;52.044;8.716;2022-10-28T12:22:48;24.90;91.40
22544;DHT22;11438;52.044;8.716;2022-10-28T12:25:25;24.90;91.10
22544;DHT22;11438;52.044;8.716;2022-10-28T12:27:57;25.00;91.30
22544;DHT22;11438;52.044;8.716;2022-10-28T12:30:27;25.00;90.90
22544;DHT22;11438;52.044;8.716;2022-10-28T12:33:16;25.10;91.10
22544;DHT22;11438;52.044;8.716;2022-10-28T12:35:54;25.10;91.30
22544;DHT22;11438;52.044;8.716;2022-10-28T12:38:25;25.20;90.70
22544;DHT22;11438;52.044;8.716;2022-10-28T12:41:02;25.20;90.80
22544;DHT22;11438;52.044;8.716;2022-10-28T12:43:33;25.20;90.80
22544;DHT22;11438;52.044;8.716;2022-10-28T12:46:00;25.20;90.80
22544;DHT22;11438;52.044;8.716;2022-10-28T12:48:34;25.30;90.90
22544;DHT22;11438;52.044;8.716;2022-10-28T12:51:13;25.30;90.50
22544;DHT22;11438;52.044;8.716;2022-10-28T12:56:41;25.40;90.60
22544;DHT22;11438;52.044;8.716;2022-10-28T12:59:27;25.40;90.50
22544;DHT22;11438;52.044;8.716;2022-10-28T13:01:56;25.40;90.30
22544;DHT22;11438;52.044;8.716;2022-10-28T13:04:26;25.50;90.50
22544;DHT22;11438;52.044;8.716;2022-10-28T13:07:35;25.50;90.60
22544;DHT22;11438;52.044;8.716;2022-10-28T13:10:48;25.50;90.40
22544;DHT22;11438;52.044;8.716;2022-10-28T13:13:17;25.50;90.60
22544;DHT22;11438;52.044;8.716;2022-10-28T13:16:06;25.60;90.50
22544;DHT22;11438;52.044;8.716;2022-10-28T13:18:45;25.60;90.70
22544;DHT22;11438;52.044;8.716;2022-10-28T13:26:33;25.70;90.50
22544;DHT22;11438;52.044;8.716;2022-10-28T13:29:02;25.80;90.50
22544;DHT22;11438;52.044;8.716;2022-10-28T13:31:40;25.80;90.70
22544;DHT22;11438;52.044;8.716;2022-10-28T13:34:07;25.80;90.40
22544;DHT22;11438;52.044;8.716;2022-10-28T13:36:40;25.90;90.50
22544;DHT22;11438;52.044;8.716;2022-10-28T13:54:58;26.10;90.00
22544;DHT22;11438;52.044;8.716;2022-10-28T13:57:45;26.10;90.20
22544;DHT22;11438;52.044;8.716;2022-10-28T14:03:00;26.10;90.00
22544;DHT22;11438;52.044;8.716;2022-10-28T14:08:06;26.10;88.60
22544;DHT22;11438;52.044;8.716;2022-10-28T14:10:39;26.10;89.20
22544;DHT22;11438;52.044;8.716;2022-10-28T14:13:19;26.10;89.20
22544;DHT22;11438;52.044;8.716;2022-10-28T14:15:46;26.10;89.70
22544;DHT22;11438;52.044;8.716;2022-10-28T14:20:45;26.10;88.80
22544;DHT22;11438;52.044;8.716;2022-10-28T14:50:40;25.90;89.60
22544;DHT22;11438;52.044;8.716;2022-10-28T14:53:12;25.90;89.00
22544;DHT22;11438;52.044;8.716;2022-10-28T14:55:44;25.90;89.10
22544;DHT22;11438;52.044;8.716;2022-10-28T14:58:22;25.90;89.00
22544;DHT22;11438;52.044;8.716;2022-10-28T15:03:40;25.80;89.00
22544;DHT22;11438;52.044;8.716;2022-10-28T15:09:26;25.80;88.80
22544;DHT22;11438;52.044;8.716;2022-10-28T15:12:13;25.70;89.00
22544;DHT22;11438;52.044;8.716;2022-10-28T15:14:45;25.70;88.90
22544;DHT22;11438;52.044;8.716;2022-10-28T15:17:17;25.70;89.30
22544;DHT22;11438;52.044;8.716;2022-10-28T15:19:45;25.60;89.30
22544;DHT22;11438;52.044;8.716;2022-10-28T15:22:17;25.60;89.20
22544;DHT22;11438;52.044;8.716;2022-10-28T15:25:00;25.60;89.00
22544;DHT22;11438;52.044;8.716;2022-10-28T15:27:36;25.50;89.10
22544;DHT22;11438;52.044;8.716;2022-10-28T15:30:23;25.50;89.10
22544;DHT22;11438;52.044;8.716;2022-10-28T15:32:53;25.40;89.20
22544;DHT22;11438;52.044;8.716;2022-10-28T15:37:55;25.40;89.80
22544;DHT22;11438;52.044;8.716;2022-10-28T15:43:02;25.20;90.00
22544;DHT22;11438;52.044;8.716;2022-10-28T15:45:30;25.20;90.20
22544;DHT22;11438;52.044;8.716;2022-10-28T15:47:58;25.10;90.10
22544;DHT22;11438;52.044;8.716;2022-10-28T15:50:34;25.10;90.10
22544;DHT22;11438;52.044;8.716;2022-10-28T15:55:39;24.90;89.50
22544;DHT22;11438;52.044;8.716;2022-10-28T16:03:27;24.80;90.30
22544;DHT22;11438;52.044;8.716;2022-10-28T16:05:55;24.70;90.20
22544;DHT22;11438;52.044;8.716;2022-10-28T16:08:31;24.60;90.20
22544;DHT22;11438;52.044;8.716;2022-10-28T16:11:03;24.50;90.30
22544;DHT22;11438;52.044;8.716;2022-10-28T16:13:35;24.50;90.40
22544;DHT22;11438;52.044;8.716;2022-10-28T16:16:08;24.40;90.30
22544;DHT22;11438;52.044;8.716;2022-10-28T16:18:59;24.30;90.20
22544;DHT22;11438;52.044;8.716;2022-10-28T16:21:26;24.30;90.50
22544;DHT22;11438;52.044;8.716;2022-10-28T16:23:54;24.20;90.40
22544;DHT22;11438;52.044;8.716;2022-10-28T16:26:24;24.10;90.50
22544;DHT22;11438;52.044;8.716;2022-10-28T16:28:50;24.00;90.40
22544;DHT22;11438;52.044;8.716;2022-10-28T16:31:17;24.00;90.20
22544;DHT22;11438;52.044;8.716;2022-10-28T16:33:44;23.90;90.30
22544;DHT22;11438;52.044;8.716;2022-10-28T16:36:09;23.80;90.20
22544;DHT22;11438;52.044;8.716;2022-10-28T16:38:35;23.80;90.10
22544;DHT22;11438;52.044;8.716;2022-10-28T16:41:02;23.70;90.60
22544;DHT22;11438;52.044;8.716;2022-10-28T16:43:29;23.70;90.10
22544;DHT22;11438;52.044;8.716;2022-10-28T16:45:57;23.70;89.60
22544;DHT22;11438;52.044;8.716;2022-10-28T16:48:24;23.60;89.60
22544;DHT22;11438;52.044;8.716;2022-10-28T16:50:59;23.60;90.00
22544;DHT22;11438;52.044;8.716;2022-10-28T16:53:25;23.60;90.00
22544;DHT22;11438;52.044;8.716;2022-10-28T16:55:51;23.60;90.00
22544;DHT22;11438;52.044;8.716;2022-10-28T16:58:26;23.60;90.00
22544;DHT22;11438;52.044;8.716;2022-10-28T17:00:52;23.60;89.60
22544;DHT22;11438;52.044;8.716;2022-10-28T17:03:18;23.60;89.30
22544;DHT22;11438;52.044;8.716;2022-10-28T17:05:43;23.60;89.70
22544;DHT22;11438;52.044;8.716;2022-10-28T17:08:10;23.60;89.80
22544;DHT22;11438;52.044;8.716;2022-10-28T17:10:37;23.60;89.90
22544;DHT22;11438;52.044;8.716;2022-10-28T17:13:05;23.60;89.50
22544;DHT22;11438;52.044;8.716;2022-10-28T17:15:33;23.60;89.20
22544;DHT22;11438;52.044;8.716;2022-10-28T17:17:59;23.60;89.30
22544;DHT22;11438;52.044;8.716;2022-10-28T17:20:25;23.60;89.20
22544;DHT22;11438;52.044;8.716;2022-10-28T17:22:50;23.60;89.00
22544;DHT22;11438;52.044;8.716;2022-10-28T17:25:16;23.70;89.20
22544;DHT22;11438;52.044;8.716;2022-10-28T17:27:41;23.70;89.20
22544;DHT22;11438;52.044;8.716;2022-10-28T17:30:13;23.70;88.80
22544;DHT22;11438;52.044;8.716;2022-10-28T17:32:38;23.70;88.70
22544;DHT22;11438;52.044;8.716;2022-10-28T17:35:04;23.70;88.70
22544;DHT22;11438;52.044;8.716;2022-10-28T17:37:30;23.70;89.20
22544;DHT22;11438;52.044;8.716;2022-10-28T17:39:56;23.70;88.90
22544;DHT22;11438;52.044;8.716;2022-10-28T17:42:22;23.70;88.40
22544;DHT22;11438;52.044;8.716;2022-10-28T17:44:48;23.70;88.80
22544;DHT22;11438;52.044;8.716;2022-10-28T17:47:13;23.70;88.70
22544;DHT22;11438;52.044;8.716;2022-10-28T17:49:39;23.70;88.80
22544;DHT22;11438;52.044;8.716;2022-10-28T17:52:04;23.60;89.00
22544;DHT22;11438;52.044;8.716;2022-10-28T17:54:30;23.60;88.90
22544;DHT22;11438;52.044;8.716;2022-10-28T17:56:55;23.60;88.90
22544;DHT22;11438;52.044;8.716;2022-10-28T17:59:21;23.60;88.40
22544;DHT22;11438;52.044;8.716;2022-10-28T18:01:46;23.60;88.60
22544;DHT22;11438;52.044;8.716;2022-10-28T18:04:12;23.60;89.00
22544;DHT22;11438;52.044;8.716;2022-10-28T18:06:38;23.60;88.90
22544;DHT22;11438;52.044;8.716;2022-10-28T18:09:03;23.60;88.80
22544;DHT22;11438;52.044;8.716;2022-10-28T18:11:29;23.60;88.70
22544;DHT22;11438;52.044;8.716;2022-10-28T18:13:57;23.60;88.80
22544;DHT22;11438;52.044;8.716;2022-10-28T18:16:25;23.60;88.80
22544;DHT22;11438;52.044;8.716;2022-10-28T18:18:52;23.50;88.70
22544;DHT22;11438;52.044;8.716;2022-10-28T18:21:18;23.50;88.70
22544;DHT22;11438;52.044;8.716;2022-10-28T18:23:52;23.50;88.60
22544;DHT22;11438;52.044;8.716;2022-10-28T18:26:19;23.50;88.90
22544;DHT22;11438;52.044;8.716;2022-10-28T18:28:45;23.50;88.90